Terminal Aerodrome Forecast
Issued by NWS Central Illinois

Home | Current Version | Previous Version | Text Only | Print | Product List | Glossary On
Versions: 1 2 3 4 5 6 7 8 9 10 11 12 13 14 15 16 17 18 19 20 21 22 23 24 25 26 27 28 29 30
000
FTUS43 KILX 300119 AAA
TAFSPI
TAF AMD
KSPI 300119Z 3001/3024 05010KT P6SM SCT030
      TEMPO 3002/3005 BKN030
     FM300500 09012KT P6SM OVC070
     FM300900 10014KT 4SM -RA OVC008
     FM301200 13015G24KT 2SM -RA BR VCTS OVC008CB
     FM302200 10012KT 5SM -SHRA VCTS BKN015CB=

USA.gov is the U.S. government's official web portal to all federal, state and local government web resources and services.